sensor_id;sensor_type;location;lat;lon;timestamp;pressure;altitude;pressure_sealevel;temperature;humidity
6194;BME280;3130;41.564;23.280;2022-07-29T00:00:51;98801.72;;;23.16;80.55
6194;BME280;3130;41.564;23.280;2022-07-29T00:03:19;98795.03;;;23.14;80.30
6194;BME280;3130;41.564;23.280;2022-07-29T00:05:46;98811.31;;;23.24;80.15
6194;BME280;3130;41.564;23.280;2022-07-29T00:08:13;98804.16;;;23.18;80.16
6194;BME280;3130;41.564;23.280;2022-07-29T00:10:41;98804.16;;;23.18;80.29
6194;BME280;3130;41.564;23.280;2022-07-29T00:13:08;98796.94;;;23.20;80.10
6194;BME280;3130;41.564;23.280;2022-07-29T00:15:35;98812.19;;;23.39;79.56
6194;BME280;3130;41.564;23.280;2022-07-29T00:18:03;98805.03;;;23.33;78.52
6194;BME280;3130;41.564;23.280;2022-07-29T00:20:32;98724.50;;;22.90;78.33
6194;BME280;3130;41.564;23.280;2022-07-29T00:22:59;98802.31;;;23.48;77.48
6194;BME280;3130;41.564;23.280;2022-07-29T00:25:26;98792.72;;;23.41;77.38
6194;BME280;3130;41.564;23.280;2022-07-29T00:27:53;98794.97;;;23.44;77.73
6194;BME280;3130;41.564;23.280;2022-07-29T00:30:20;98785.63;;;23.27;77.80
6194;BME280;3130;41.564;23.280;2022-07-29T00:32:47;98807.13;;;23.37;77.97
6194;BME280;3130;41.564;23.280;2022-07-29T00:35:15;98806.34;;;23.37;77.88
6194;BME280;3130;41.564;23.280;2022-07-29T00:38:00;98790.75;;;22.82;78.55
6194;BME280;3130;41.564;23.280;2022-07-29T00:40:28;98802.31;;;22.57;79.32
6194;BME280;3130;41.564;23.280;2022-07-29T00:42:55;98797.97;;;22.26;80.40
6194;BME280;3130;41.564;23.280;2022-07-29T00:45:22;98802.75;;;22.07;81.34
6194;BME280;3130;41.564;23.280;2022-07-29T00:47:49;98788.56;;;21.85;81.39
6194;BME280;3130;41.564;23.280;2022-07-29T00:50:17;98796.41;;;21.85;81.73
6194;BME280;3130;41.564;23.280;2022-07-29T00:52:45;98795.78;;;21.75;82.33
6194;BME280;3130;41.564;23.280;2022-07-29T00:55:15;98789.41;;;21.62;83.46
6194;BME280;3130;41.564;23.280;2022-07-29T00:57:43;98804.72;;;21.49;83.97
6194;BME280;3130;41.564;23.280;2022-07-29T01:00:16;98802.41;;;21.38;84.92
6194;BME280;3130;41.564;23.280;2022-07-29T01:02:44;98799.97;;;21.21;85.98
6194;BME280;3130;41.564;23.280;2022-07-29T01:05:13;98771.88;;;20.99;86.49
6194;BME280;3130;41.564;23.280;2022-07-29T01:07:41;98781.81;;;20.95;85.15
6194;BME280;3130;41.564;23.280;2022-07-29T01:10:09;98791.59;;;20.93;85.27
6194;BME280;3130;41.564;23.280;2022-07-29T01:12:40;98784.41;;;20.87;84.66
6194;BME280;3130;41.564;23.280;2022-07-29T01:15:11;98783.09;;;20.91;84.75
6194;BME280;3130;41.564;23.280;2022-07-29T01:17:43;98787.19;;;20.94;84.94
6194;BME280;3130;41.564;23.280;2022-07-29T01:20:15;98787.50;;;20.91;84.82
6194;BME280;3130;41.564;23.280;2022-07-29T01:23:08;98782.75;;;20.86;83.85
6194;BME280;3130;41.564;23.280;2022-07-29T01:28:47;98762.75;;;20.53;83.34
6194;BME280;3130;41.564;23.280;2022-07-29T01:31:18;98786.25;;;20.61;84.06
6194;BME280;3130;41.564;23.280;2022-07-29T01:33:52;98788.69;;;20.63;84.96
6194;BME280;3130;41.564;23.280;2022-07-29T01:36:27;98779.91;;;20.64;85.59
6194;BME280;3130;41.564;23.280;2022-07-29T01:39:02;98763.28;;;20.65;85.87
6194;BME280;3130;41.564;23.280;2022-07-29T01:41:32;98779.59;;;20.75;85.40
6194;BME280;3130;41.564;23.280;2022-07-29T01:44:10;98782.72;;;20.78;85.49
6194;BME280;3130;41.564;23.280;2022-07-29T01:46:40;98775.44;;;20.82;85.90
6194;BME280;3130;41.564;23.280;2022-07-29T01:49:11;98779.03;;;20.89;86.21
6194;BME280;3130;41.564;23.280;2022-07-29T01:51:45;98771.66;;;20.84;86.78
6194;BME280;3130;41.564;23.280;2022-07-29T01:54:18;98772.06;;;20.97;86.87
6194;BME280;3130;41.564;23.280;2022-07-29T01:56:48;98776.78;;;21.02;87.16
6194;BME280;3130;41.564;23.280;2022-07-29T01:59:18;98773.84;;;21.05;87.40
6194;BME280;3130;41.564;23.280;2022-07-29T02:01:47;98775.31;;;21.07;87.43
6194;BME280;3130;41.564;23.280;2022-07-29T02:04:18;98770.09;;;21.07;87.88
6194;BME280;3130;41.564;23.280;2022-07-29T02:06:48;98736.34;;;20.90;88.38
6194;BME280;3130;41.564;23.280;2022-07-29T02:09:16;98772.41;;;21.10;87.48
6194;BME280;3130;41.564;23.280;2022-07-29T02:11:48;98768.47;;;21.06;86.01
6194;BME280;3130;41.564;23.280;2022-07-29T02:14:19;98764.88;;;20.99;82.04
6194;BME280;3130;41.564;23.280;2022-07-29T02:16:50;98766.00;;;20.89;80.53
6194;BME280;3130;41.564;23.280;2022-07-29T02:19:21;98770.81;;;20.76;80.29
6194;BME280;3130;41.564;23.280;2022-07-29T02:21:51;98674.81;;;20.06;80.66
6194;BME280;3130;41.564;23.280;2022-07-29T02:24:21;98775.66;;;20.55;80.75
6194;BME280;3130;41.564;23.280;2022-07-29T02:26:51;98773.47;;;20.50;81.36
6194;BME280;3130;41.564;23.280;2022-07-29T02:29:22;98771.84;;;20.41;81.64
6194;BME280;3130;41.564;23.280;2022-07-29T02:31:50;98776.72;;;20.44;81.23
6194;BME280;3130;41.564;23.280;2022-07-29T02:34:19;98774.63;;;20.48;81.03
6194;BME280;3130;41.564;23.280;2022-07-29T02:36:48;98752.22;;;20.29;81.07
6194;BME280;3130;41.564;23.280;2022-07-29T02:39:17;98778.69;;;20.42;80.84
6194;BME280;3130;41.564;23.280;2022-07-29T02:41:47;98774.25;;;20.35;80.97
6194;BME280;3130;41.564;23.280;2022-07-29T02:44:17;98775.84;;;20.28;81.68
6194;BME280;3130;41.564;23.280;2022-07-29T02:46:49;98774.66;;;20.23;83.17
6194;BME280;3130;41.564;23.280;2022-07-29T02:49:25;98776.44;;;20.22;83.74
6194;BME280;3130;41.564;23.280;2022-07-29T02:51:58;98755.72;;;20.13;84.05
6194;BME280;3130;41.564;23.280;2022-07-29T02:54:31;98775.34;;;20.25;83.70
6194;BME280;3130;41.564;23.280;2022-07-29T02:57:06;98770.75;;;20.19;84.73
6194;BME280;3130;41.564;23.280;2022-07-29T02:59:36;98776.88;;;20.10;84.89
6194;BME280;3130;41.564;23.280;2022-07-29T03:02:07;98756.06;;;19.92;85.23
6194;BME280;3130;41.564;23.280;2022-07-29T03:04:35;98773.44;;;20.09;86.24
6194;BME280;3130;41.564;23.280;2022-07-29T03:07:05;98774.94;;;20.12;86.29
6194;BME280;3130;41.564;23.280;2022-07-29T03:09:34;98769.22;;;20.08;85.64
6194;BME280;3130;41.564;23.280;2022-07-29T03:12:01;98734.56;;;19.82;85.80
6194;BME280;3130;41.564;23.280;2022-07-29T03:14:30;98772.94;;;20.06;85.48
6194;BME280;3130;41.564;23.280;2022-07-29T03:16:58;98750.50;;;19.87;84.85
6194;BME280;3130;41.564;23.280;2022-07-29T03:19:27;98690.06;;;19.42;84.81
6194;BME280;3130;41.564;23.280;2022-07-29T03:21:56;98737.34;;;19.63;84.77
6194;BME280;3130;41.564;23.280;2022-07-29T03:24:28;98783.34;;;19.80;84.59
6194;BME280;3130;41.564;23.280;2022-07-29T03:26:56;98776.59;;;19.70;84.62
6194;BME280;3130;41.564;23.280;2022-07-29T03:29:24;98780.97;;;19.69;84.65
6194;BME280;3130;41.564;23.280;2022-07-29T03:31:51;98787.13;;;19.68;85.31
6194;BME280;3130;41.564;23.280;2022-07-29T03:34:18;98788.75;;;19.69;85.59
6194;BME280;3130;41.564;23.280;2022-07-29T03:36:47;98782.09;;;19.67;85.52
6194;BME280;3130;41.564;23.280;2022-07-29T03:39:17;98791.06;;;19.72;85.49
6194;BME280;3130;41.564;23.280;2022-07-29T03:41:46;98783.88;;;19.66;86.08
6194;BME280;3130;41.564;23.280;2022-07-29T03:44:16;98798.75;;;19.74;86.47
6194;BME280;3130;41.564;23.280;2022-07-29T03:46:45;98792.63;;;19.83;87.15
6194;BME280;3130;41.564;23.280;2022-07-29T03:49:15;98791.72;;;19.92;87.22
6194;BME280;3130;41.564;23.280;2022-07-29T03:51:43;98785.91;;;19.98;87.45
6194;BME280;3130;41.564;23.280;2022-07-29T03:54:12;98786.44;;;20.01;87.46
6194;BME280;3130;41.564;23.280;2022-07-29T03:56:42;98795.13;;;20.10;86.50
6194;BME280;3130;41.564;23.280;2022-07-29T03:59:12;98799.00;;;20.06;86.00
6194;BME280;3130;41.564;23.280;2022-07-29T04:01:40;98805.63;;;20.00;85.52
6194;BME280;3130;41.564;23.280;2022-07-29T04:04:08;98739.97;;;19.63;84.40
6194;BME280;3130;41.564;23.280;2022-07-29T04:06:39;98814.91;;;20.03;84.82
6194;BME280;3130;41.564;23.280;2022-07-29T04:09:06;98807.97;;;20.11;84.79
6194;BME280;3130;41.564;23.280;2022-07-29T04:11:36;98774.38;;;20.00;83.86
6194;BME280;3130;41.564;23.280;2022-07-29T04:14:03;98713.56;;;19.58;83.56
6194;BME280;3130;41.564;23.280;2022-07-29T04:16:31;98794.44;;;20.08;83.89
6194;BME280;3130;41.564;23.280;2022-07-29T04:18:58;98766.09;;;19.79;84.00
6194;BME280;3130;41.564;23.280;2022-07-29T04:21:25;98758.09;;;19.81;83.68
6194;BME280;3130;41.564;23.280;2022-07-29T04:23:52;98813.25;;;20.19;83.77
6194;BME280;3130;41.564;23.280;2022-07-29T04:26:20;98806.91;;;20.22;83.00
6194;BME280;3130;41.564;23.280;2022-07-29T04:28:49;98802.59;;;20.13;83.57
6194;BME280;3130;41.564;23.280;2022-07-29T04:31:16;98806.06;;;20.21;83.65
6194;BME280;3130;41.564;23.280;2022-07-29T04:33:43;98822.91;;;20.34;83.35
6194;BME280;3130;41.564;23.280;2022-07-29T04:36:10;98813.81;;;20.38;83.53
6194;BME280;3130;41.564;23.280;2022-07-29T04:38:38;98818.25;;;20.46;83.65
6194;BME280;3130;41.564;23.280;2022-07-29T04:41:06;98818.75;;;20.49;83.53
6194;BME280;3130;41.564;23.280;2022-07-29T04:43:34;98806.69;;;20.48;83.58
6194;BME280;3130;41.564;23.280;2022-07-29T04:46:05;98829.91;;;20.67;82.57
6194;BME280;3130;41.564;23.280;2022-07-29T04:48:33;98833.44;;;20.84;82.55
6194;BME280;3130;41.564;23.280;2022-07-29T04:51:00;98832.69;;;20.99;82.28
6194;BME280;3130;41.564;23.280;2022-07-29T04:53:27;98836.63;;;21.19;84.30
6194;BME280;3130;41.564;23.280;2022-07-29T04:55:55;98833.59;;;21.39;84.76
6194;BME280;3130;41.564;23.280;2022-07-29T04:58:22;98820.53;;;21.55;85.02
6194;BME280;3130;41.564;23.280;2022-07-29T05:00:49;98819.44;;;21.74;84.89
6194;BME280;3130;41.564;23.280;2022-07-29T05:03:18;98823.19;;;21.95;84.50
6194;BME280;3130;41.564;23.280;2022-07-29T05:05:46;98841.13;;;22.06;83.17
6194;BME280;3130;41.564;23.280;2022-07-29T05:08:13;98829.66;;;22.23;82.62
6194;BME280;3130;41.564;23.280;2022-07-29T05:10:40;98827.53;;;22.35;81.30
6194;BME280;3130;41.564;23.280;2022-07-29T05:13:07;98823.13;;;22.35;80.63
6194;BME280;3130;41.564;23.280;2022-07-29T05:15:36;98829.47;;;22.40;80.36
6194;BME280;3130;41.564;23.280;2022-07-29T05:18:04;98829.78;;;22.45;79.66
6194;BME280;3130;41.564;23.280;2022-07-29T05:20:32;98825.84;;;22.57;79.51
6194;BME280;3130;41.564;23.280;2022-07-29T05:23:01;98834.63;;;22.72;79.29
6194;BME280;3130;41.564;23.280;2022-07-29T05:25:28;98827.69;;;22.79;78.38
6194;BME280;3130;41.564;23.280;2022-07-29T05:27:56;98764.44;;;22.53;77.84
6194;BME280;3130;41.564;23.280;2022-07-29T05:30:24;98831.34;;;23.09;77.73
6194;BME280;3130;41.564;23.280;2022-07-29T05:32:51;98829.50;;;23.17;77.24
6194;BME280;3130;41.564;23.280;2022-07-29T05:35:18;98826.66;;;23.27;76.95
6194;BME280;3130;41.564;23.280;2022-07-29T05:37:47;98824.66;;;23.37;76.67
6194;BME280;3130;41.564;23.280;2022-07-29T05:40:14;98827.53;;;23.42;76.18
6194;BME280;3130;41.564;23.280;2022-07-29T05:42:41;98827.84;;;23.46;76.53
6194;BME280;3130;41.564;23.280;2022-07-29T05:45:09;98833.84;;;23.55;75.74
6194;BME280;3130;41.564;23.280;2022-07-29T05:47:37;98842.09;;;23.66;75.01
6194;BME280;3130;41.564;23.280;2022-07-29T05:50:04;98838.75;;;23.72;75.03
6194;BME280;3130;41.564;23.280;2022-07-29T05:52:32;98836.31;;;23.79;75.14
6194;BME280;3130;41.564;23.280;2022-07-29T05:55:00;98812.13;;;23.69;74.64
6194;BME280;3130;41.564;23.280;2022-07-29T05:57:31;98843.03;;;23.96;73.82
6194;BME280;3130;41.564;23.280;2022-07-29T05:59:58;98843.59;;;24.06;73.49
6194;BME280;3130;41.564;23.280;2022-07-29T06:02:25;98843.25;;;24.09;73.58
6194;BME280;3130;41.564;23.280;2022-07-29T06:04:53;98847.53;;;24.24;72.49
6194;BME280;3130;41.564;23.280;2022-07-29T06:07:20;98847.44;;;24.32;72.03
6194;BME280;3130;41.564;23.280;2022-07-29T06:09:47;98846.63;;;24.32;72.41
6194;BME280;3130;41.564;23.280;2022-07-29T06:12:16;98860.91;;;24.44;72.53
6194;BME280;3130;41.564;23.280;2022-07-29T06:14:43;98849.34;;;24.52;72.92
6194;BME280;3130;41.564;23.280;2022-07-29T06:17:10;98813.28;;;24.40;72.46
6194;BME280;3130;41.564;23.280;2022-07-29T06:19:38;98846.75;;;24.81;72.24
6194;BME280;3130;41.564;23.280;2022-07-29T06:22:05;98831.50;;;24.91;71.62
6194;BME280;3130;41.564;23.280;2022-07-29T06:24:32;98843.91;;;25.12;70.30
6194;BME280;3130;41.564;23.280;2022-07-29T06:26:59;98842.88;;;25.27;67.56
6194;BME280;3130;41.564;23.280;2022-07-29T06:29:28;98847.09;;;25.43;66.34
6194;BME280;3130;41.564;23.280;2022-07-29T06:31:55;98783.88;;;25.09;65.83
6194;BME280;3130;41.564;23.280;2022-07-29T06:34:22;98786.88;;;25.20;65.29
6194;BME280;3130;41.564;23.280;2022-07-29T06:36:49;98841.69;;;25.71;64.79
6194;BME280;3130;41.564;23.280;2022-07-29T06:39:18;98833.16;;;25.84;63.30
6194;BME280;3130;41.564;23.280;2022-07-29T06:41:46;98839.97;;;25.99;62.73
6194;BME280;3130;41.564;23.280;2022-07-29T06:44:13;98755.91;;;25.57;62.42
6194;BME280;3130;41.564;23.280;2022-07-29T06:46:42;98834.50;;;26.28;61.43
6194;BME280;3130;41.564;23.280;2022-07-29T06:49:09;98842.13;;;26.44;60.90
6194;BME280;3130;41.564;23.280;2022-07-29T06:51:37;98843.22;;;26.62;60.82
6194;BME280;3130;41.564;23.280;2022-07-29T06:54:05;98845.75;;;26.77;59.88
6194;BME280;3130;41.564;23.280;2022-07-29T06:56:33;98787.19;;;26.62;59.49
6194;BME280;3130;41.564;23.280;2022-07-29T06:59:01;98841.41;;;27.03;58.87
6194;BME280;3130;41.564;23.280;2022-07-29T07:01:28;98827.28;;;27.17;58.32
6194;BME280;3130;41.564;23.280;2022-07-29T07:03:57;98768.44;;;26.84;57.95
6194;BME280;3130;41.564;23.280;2022-07-29T07:06:24;98833.44;;;27.44;58.31
6194;BME280;3130;41.564;23.280;2022-07-29T07:08:51;98824.97;;;27.55;56.96
6194;BME280;3130;41.564;23.280;2022-07-29T07:11:19;98819.69;;;27.61;55.96
6194;BME280;3130;41.564;23.280;2022-07-29T07:13:46;98819.50;;;27.63;57.40
6194;BME280;3130;41.564;23.280;2022-07-29T07:16:13;98817.47;;;27.58;57.92
6194;BME280;3130;41.564;23.280;2022-07-29T07:18:40;98817.84;;;27.55;57.91
6194;BME280;3130;41.564;23.280;2022-07-29T07:21:09;98811.03;;;27.67;57.94
6194;BME280;3130;41.564;23.280;2022-07-29T07:23:36;98814.06;;;27.83;57.95
6194;BME280;3130;41.564;23.280;2022-07-29T07:26:03;98814.06;;;27.77;57.62
6194;BME280;3130;41.564;23.280;2022-07-29T07:28:31;98817.91;;;28.07;56.16
6194;BME280;3130;41.564;23.280;2022-07-29T07:30:59;98770.25;;;28.02;54.57
6194;BME280;3130;41.564;23.280;2022-07-29T07:33:26;98807.53;;;28.44;54.31
6194;BME280;3130;41.564;23.280;2022-07-29T07:35:53;98817.19;;;28.76;53.73
6194;BME280;3130;41.564;23.280;2022-07-29T07:38:22;98820.19;;;28.92;52.91
6194;BME280;3130;41.564;23.280;2022-07-29T07:40:49;98802.25;;;29.01;52.08
6194;BME280;3130;41.564;23.280;2022-07-29T07:43:16;98810.38;;;29.06;52.08
6194;BME280;3130;41.564;23.280;2022-07-29T07:45:43;98816.72;;;29.29;50.73
6194;BME280;3130;41.564;23.280;2022-07-29T07:48:11;98814.81;;;29.49;49.87
6194;BME280;3130;41.564;23.280;2022-07-29T07:50:38;98799.50;;;29.58;50.51
6194;BME280;3130;41.564;23.280;2022-07-29T07:53:05;98809.53;;;29.49;49.95
6194;BME280;3130;41.564;23.280;2022-07-29T07:55:33;98782.94;;;29.38;50.16
6194;BME280;3130;41.564;23.280;2022-07-29T07:58:06;98798.78;;;29.75;50.27
6194;BME280;3130;41.564;23.280;2022-07-29T08:00:33;98792.19;;;30.08;49.04
6194;BME280;3130;41.564;23.280;2022-07-29T08:03:00;98805.13;;;30.59;47.38
6194;BME280;3130;41.564;23.280;2022-07-29T08:05:28;98804.34;;;31.23;45.58
6194;BME280;3130;41.564;23.280;2022-07-29T08:07:55;98789.97;;;31.83;43.16
6194;BME280;3130;41.564;23.280;2022-07-29T08:10:22;98789.09;;;32.35;41.75
6194;BME280;3130;41.564;23.280;2022-07-29T08:13:05;98794.00;;;32.77;41.14
6194;BME280;3130;41.564;23.280;2022-07-29T08:15:33;98790.19;;;32.73;41.00
6194;BME280;3130;41.564;23.280;2022-07-29T08:18:00;98793.81;;;32.67;41.26
6194;BME280;3130;41.564;23.280;2022-07-29T08:20:28;98723.06;;;32.15;42.18
6194;BME280;3130;41.564;23.280;2022-07-29T08:22:55;98785.59;;;32.34;41.72
6194;BME280;3130;41.564;23.280;2022-07-29T08:25:22;98788.88;;;32.13;43.25
6194;BME280;3130;41.564;23.280;2022-07-29T08:27:49;98779.94;;;31.74;43.60
6194;BME280;3130;41.564;23.280;2022-07-29T08:30:18;98783.72;;;31.66;44.00
6194;BME280;3130;41.564;23.280;2022-07-29T08:32:47;98775.06;;;31.59;44.00
6194;BME280;3130;41.564;23.280;2022-07-29T08:35:16;98774.44;;;31.57;43.38
6194;BME280;3130;41.564;23.280;2022-07-29T08:37:43;98770.97;;;31.45;43.49
6194;BME280;3130;41.564;23.280;2022-07-29T08:40:10;98778.63;;;31.53;43.19
6194;BME280;3130;41.564;23.280;2022-07-29T08:42:38;98732.75;;;31.23;42.75
6194;BME280;3130;41.564;23.280;2022-07-29T08:45:06;98775.88;;;31.60;42.75
6194;BME280;3130;41.564;23.280;2022-07-29T08:47:35;98742.84;;;31.44;42.71
6194;BME280;3130;41.564;23.280;2022-07-29T08:50:05;98770.81;;;31.70;42.46
6194;BME280;3130;41.564;23.280;2022-07-29T08:52:35;98774.28;;;31.70;42.48
6194;BME280;3130;41.564;23.280;2022-07-29T08:55:04;98768.88;;;31.77;42.23
6194;BME280;3130;41.564;23.280;2022-07-29T08:57:32;98776.25;;;31.86;42.22
6194;BME280;3130;41.564;23.280;2022-07-29T09:00:02;98770.84;;;31.92;41.50
6194;BME280;3130;41.564;23.280;2022-07-29T09:02:35;98761.84;;;31.82;42.21
6194;BME280;3130;41.564;23.280;2022-07-29T09:05:02;98760.91;;;31.77;41.07
6194;BME280;3130;41.564;23.280;2022-07-29T09:07:31;98763.44;;;31.83;41.60
6194;BME280;3130;41.564;23.280;2022-07-29T09:09:59;98753.34;;;31.51;40.80
6194;BME280;3130;41.564;23.280;2022-07-29T09:12:26;98755.09;;;31.57;41.08
6194;BME280;3130;41.564;23.280;2022-07-29T09:14:53;98682.41;;;31.23;41.25
6194;BME280;3130;41.564;23.280;2022-07-29T09:17:42;98756.84;;;31.74;39.98
6194;BME280;3130;41.564;23.280;2022-07-29T09:20:11;98737.50;;;31.74;38.99
6194;BME280;3130;41.564;23.280;2022-07-29T09:22:39;98736.47;;;31.86;39.22
6194;BME280;3130;41.564;23.280;2022-07-29T09:25:07;98742.22;;;32.06;38.99
6194;BME280;3130;41.564;23.280;2022-07-29T09:27:34;98728.72;;;32.19;38.14
6194;BME280;3130;41.564;23.280;2022-07-29T09:30:04;98753.94;;;32.56;37.47
6194;BME280;3130;41.564;23.280;2022-07-29T09:32:32;98751.63;;;32.71;37.85
6194;BME280;3130;41.564;23.280;2022-07-29T09:35:21;98750.28;;;32.85;36.32
6194;BME280;3130;41.564;23.280;2022-07-29T09:37:49;98745.66;;;32.92;36.16
6194;BME280;3130;41.564;23.280;2022-07-29T09:40:18;98738.94;;;32.89;36.19
6194;BME280;3130;41.564;23.280;2022-07-29T09:42:45;98741.28;;;32.86;35.40
6194;BME280;3130;41.564;23.280;2022-07-29T09:45:26;98736.31;;;32.78;36.07
6194;BME280;3130;41.564;23.280;2022-07-29T09:47:53;98736.94;;;32.68;36.38
6194;BME280;3130;41.564;23.280;2022-07-29T09:50:34;98728.78;;;32.86;37.23
6194;BME280;3130;41.564;23.280;2022-07-29T09:53:02;98730.13;;;33.00;35.77
6194;BME280;3130;41.564;23.280;2022-07-29T09:55:29;98729.78;;;32.97;35.04
6194;BME280;3130;41.564;23.280;2022-07-29T09:58:14;98730.34;;;32.98;34.80
6194;BME280;3130;41.564;23.280;2022-07-29T10:00:43;98722.31;;;33.10;34.95
6194;BME280;3130;41.564;23.280;2022-07-29T10:03:10;98716.41;;;33.19;34.39
6194;BME280;3130;41.564;23.280;2022-07-29T10:05:39;98709.25;;;33.36;34.54
6194;BME280;3130;41.564;23.280;2022-07-29T10:08:08;98701.75;;;33.50;32.91
6194;BME280;3130;41.564;23.280;2022-07-29T10:10:36;98705.38;;;33.60;33.14
6194;BME280;3130;41.564;23.280;2022-07-29T10:13:05;98711.03;;;33.64;32.67
6194;BME280;3130;41.564;23.280;2022-07-29T10:15:35;98702.31;;;33.52;32.52
6194;BME280;3130;41.564;23.280;2022-07-29T10:18:05;98691.28;;;33.43;32.74
6194;BME280;3130;41.564;23.280;2022-07-29T10:20:32;98692.56;;;33.24;33.54
6194;BME280;3130;41.564;23.280;2022-07-29T10:23:01;98685.47;;;33.30;33.33
6194;BME280;3130;41.564;23.280;2022-07-29T10:25:28;98686.66;;;33.39;33.15
6194;BME280;3130;41.564;23.280;2022-07-29T10:27:56;98683.69;;;33.52;33.27
6194;BME280;3130;41.564;23.280;2022-07-29T10:30:24;98687.47;;;33.72;32.01
6194;BME280;3130;41.564;23.280;2022-07-29T10:33:01;98680.53;;;33.88;31.78
6194;BME280;3130;41.564;23.280;2022-07-29T10:38:49;98669.81;;;34.04;31.48
6194;BME280;3130;41.564;23.280;2022-07-29T10:41:37;98649.44;;;33.93;31.65
6194;BME280;3130;41.564;23.280;2022-07-29T10:44:14;98662.81;;;34.14;31.06
6194;BME280;3130;41.564;23.280;2022-07-29T10:46:42;98656.03;;;34.28;31.09
6194;BME280;3130;41.564;23.280;2022-07-29T10:49:12;98661.25;;;34.40;30.01
6194;BME280;3130;41.564;23.280;2022-07-29T10:51:55;98654.84;;;34.41;29.65
6194;BME280;3130;41.564;23.280;2022-07-29T10:54:45;98651.75;;;34.49;30.18
6194;BME280;3130;41.564;23.280;2022-07-29T10:57:18;98641.53;;;34.41;29.86
6194;BME280;3130;41.564;23.280;2022-07-29T10:59:47;98633.75;;;34.34;30.14
6194;BME280;3130;41.564;23.280;2022-07-29T11:02:45;98630.75;;;34.52;30.40
6194;BME280;3130;41.564;23.280;2022-07-29T11:05:17;98598.97;;;34.46;29.45
6194;BME280;3130;41.564;23.280;2022-07-29T11:08:18;98619.00;;;34.75;28.56
6194;BME280;3130;41.564;23.280;2022-07-29T11:14:07;98616.44;;;34.85;28.73
6194;BME280;3130;41.564;23.280;2022-07-29T11:17:00;98617.34;;;34.95;28.87
6194;BME280;3130;41.564;23.280;2022-07-29T11:19:31;98618.97;;;35.01;28.93
6194;BME280;3130;41.564;23.280;2022-07-29T11:21:59;98565.94;;;34.73;28.17
6194;BME280;3130;41.564;23.280;2022-07-29T11:24:27;98615.88;;;35.09;28.34
6194;BME280;3130;41.564;23.280;2022-07-29T11:27:09;98607.94;;;35.19;28.32
6194;BME280;3130;41.564;23.280;2022-07-29T11:29:48;98602.94;;;35.27;27.86
6194;BME280;3130;41.564;23.280;2022-07-29T11:32:17;98602.94;;;35.27;27.59
6194;BME280;3130;41.564;23.280;2022-07-29T11:34:46;98606.41;;;35.28;27.40
6194;BME280;3130;41.564;23.280;2022-07-29T11:37:21;98602.41;;;35.30;26.46
6194;BME280;3130;41.564;23.280;2022-07-29T11:40:16;98590.97;;;35.35;25.89
6194;BME280;3130;41.564;23.280;2022-07-29T11:42:45;98605.22;;;35.50;25.59
6194;BME280;3130;41.564;23.280;2022-07-29T11:45:17;98595.44;;;35.61;25.21
6194;BME280;3130;41.564;23.280;2022-07-29T11:47:52;98589.16;;;35.45;25.97
6194;BME280;3130;41.564;23.280;2022-07-29T11:50:34;98598.63;;;35.58;26.56
6194;BME280;3130;41.564;23.280;2022-07-29T11:53:03;98574.25;;;35.49;26.43
6194;BME280;3130;41.564;23.280;2022-07-29T11:55:30;98549.13;;;35.40;27.08
6194;BME280;3130;41.564;23.280;2022-07-29T11:58:01;98591.00;;;35.81;26.96
6194;BME280;3130;41.564;23.280;2022-07-29T12:00:31;98570.16;;;35.73;26.87
6194;BME280;3130;41.564;23.280;2022-07-29T12:03:01;98591.06;;;35.91;26.28
6194;BME280;3130;41.564;23.280;2022-07-29T12:05:37;98533.84;;;35.72;26.58
6194;BME280;3130;41.564;23.280;2022-07-29T12:08:07;98569.94;;;35.90;26.08
6194;BME280;3130;41.564;23.280;2022-07-29T12:10:34;98574.63;;;35.68;26.49
6194;BME280;3130;41.564;23.280;2022-07-29T12:13:02;98580.53;;;35.65;26.40
6194;BME280;3130;41.564;23.280;2022-07-29T12:15:30;98574.91;;;35.66;26.43
6194;BME280;3130;41.564;23.280;2022-07-29T12:17:58;98575.50;;;35.78;27.98
6194;BME280;3130;41.564;23.280;2022-07-29T12:20:27;98559.81;;;35.45;27.29
6194;BME280;3130;41.564;23.280;2022-07-29T12:22:56;98565.47;;;35.49;27.32
6194;BME280;3130;41.564;23.280;2022-07-29T12:25:23;98564.44;;;35.55;27.70
6194;BME280;3130;41.564;23.280;2022-07-29T12:27:59;98559.34;;;35.53;27.27
6194;BME280;3130;41.564;23.280;2022-07-29T12:30:36;98561.88;;;35.75;27.43
6194;BME280;3130;41.564;23.280;2022-07-29T12:33:22;98540.53;;;35.80;27.08
6194;BME280;3130;41.564;23.280;2022-07-29T12:35:51;98559.28;;;35.95;26.89
6194;BME280;3130;41.564;23.280;2022-07-29T12:38:20;98550.78;;;36.03;26.88
6194;BME280;3130;41.564;23.280;2022-07-29T12:40:49;98550.78;;;36.03;26.78
6194;BME280;3130;41.564;23.280;2022-07-29T12:43:19;98537.41;;;36.03;27.07
6194;BME280;3130;41.564;23.280;2022-07-29T12:45:50;98513.84;;;35.90;26.68
6194;BME280;3130;41.564;23.280;2022-07-29T12:48:32;98543.63;;;36.18;26.44
6194;BME280;3130;41.564;23.280;2022-07-29T12:51:01;98538.00;;;36.24;26.43
6194;BME280;3130;41.564;23.280;2022-07-29T12:53:29;98544.19;;;36.35;26.09
6194;BME280;3130;41.564;23.280;2022-07-29T12:55:57;98540.66;;;36.10;26.03
6194;BME280;3130;41.564;23.280;2022-07-29T12:58:28;98535.03;;;36.06;25.94
6194;BME280;3130;41.564;23.280;2022-07-29T13:01:08;98533.44;;;36.05;26.01
6194;BME280;3130;41.564;23.280;2022-07-29T13:03:47;98525.16;;;36.07;25.92
6194;BME280;3130;41.564;23.280;2022-07-29T13:06:28;98513.66;;;36.11;25.27
6194;BME280;3130;41.564;23.280;2022-07-29T13:09:03;98526.53;;;36.29;24.88
6194;BME280;3130;41.564;23.280;2022-07-29T13:11:33;98525.75;;;36.33;24.68
6194;BME280;3130;41.564;23.280;2022-07-29T13:14:00;98488.84;;;36.16;24.88
6194;BME280;3130;41.564;23.280;2022-07-29T13:16:29;98503.56;;;36.38;24.90
6194;BME280;3130;41.564;23.280;2022-07-29T13:19:10;98494.50;;;36.44;24.99
6194;BME280;3130;41.564;23.280;2022-07-29T13:21:38;98496.91;;;36.55;24.97
6194;BME280;3130;41.564;23.280;2022-07-29T13:24:06;98511.91;;;36.71;25.74
6194;BME280;3130;41.564;23.280;2022-07-29T13:26:34;98488.91;;;36.70;25.35
6194;BME280;3130;41.564;23.280;2022-07-29T13:29:03;98502.50;;;36.84;24.60
6194;BME280;3130;41.564;23.280;2022-07-29T13:31:32;98506.53;;;36.81;24.50
6194;BME280;3130;41.564;23.280;2022-07-29T13:34:00;98508.13;;;36.82;24.31